sensor_id;sensor_type;location;lat;lon;timestamp;pressure;altitude;pressure_sealevel;temperature
27986;BMP280;15453;53.692;10.168;2022-10-18T00:00:23;102104.22;;;19.04
27986;BMP280;15453;53.692;10.168;2022-10-18T00:02:48;102101.19;;;19.06
27986;BMP280;15453;53.692;10.168;2022-10-18T00:05:14;102107.84;;;19.05
27986;BMP280;15453;53.692;10.168;2022-10-18T00:07:39;102102.56;;;19.03
27986;BMP280;15453;53.692;10.168;2022-10-18T00:10:05;102110.31;;;19.01
27986;BMP280;15453;53.692;10.168;2022-10-18T00:12:32;102116.16;;;19.00
27986;BMP280;15453;53.692;10.168;2022-10-18T00:14:58;102110.91;;;18.98
27986;BMP280;15453;53.692;10.168;2022-10-18T00:17:23;102117.53;;;18.97
27986;BMP280;15453;53.692;10.168;2022-10-18T00:19:49;102117.53;;;18.97
27986;BMP280;15453;53.692;10.168;2022-10-18T00:22:15;102113.94;;;18.92
27986;BMP280;15453;53.692;10.168;2022-10-18T00:24:40;102118.91;;;18.90
27986;BMP280;15453;53.692;10.168;2022-10-18T00:27:05;102116.38;;;18.88
27986;BMP280;15453;53.692;10.168;2022-10-18T00:29:30;102122.19;;;18.87
27986;BMP280;15453;53.692;10.168;2022-10-18T00:31:56;102125.53;;;18.84
27986;BMP280;15453;53.692;10.168;2022-10-18T00:34:21;102134.41;;;18.86
27986;BMP280;15453;53.692;10.168;2022-10-18T00:36:46;102134.41;;;18.86
27986;BMP280;15453;53.692;10.168;2022-10-18T00:39:16;102153.00;;;18.85
27986;BMP280;15453;53.692;10.168;2022-10-18T00:41:42;102153.00;;;18.85
27986;BMP280;15453;53.692;10.168;2022-10-18T00:46:38;102137.44;;;18.79
27986;BMP280;15453;53.692;10.168;2022-10-18T00:49:09;102143.84;;;18.80
27986;BMP280;15453;53.692;10.168;2022-10-18T00:51:39;102142.44;;;18.77
27986;BMP280;15453;53.692;10.168;2022-10-18T00:54:05;102144.38;;;18.77
27986;BMP280;15453;53.692;10.168;2022-10-18T00:56:31;102141.88;;;18.75
27986;BMP280;15453;53.692;10.168;2022-10-18T00:58:57;102136.59;;;18.74
27986;BMP280;15453;53.692;10.168;2022-10-18T01:01:23;102133.25;;;18.72
27986;BMP280;15453;53.692;10.168;2022-10-18T01:03:49;102141.59;;;18.72
27986;BMP280;15453;53.692;10.168;2022-10-18T01:06:15;102149.91;;;18.72
27986;BMP280;15453;53.692;10.168;2022-10-18T01:11:52;102138.47;;;18.63
27986;BMP280;15453;53.692;10.168;2022-10-18T01:14:31;102140.44;;;18.63
27986;BMP280;15453;53.692;10.168;2022-10-18T01:17:05;102140.44;;;18.63
27986;BMP280;15453;53.692;10.168;2022-10-18T01:22:47;102153.16;;;18.59
27986;BMP280;15453;53.692;10.168;2022-10-18T01:27:48;102160.38;;;18.60
27986;BMP280;15453;53.692;10.168;2022-10-18T01:30:34;102145.38;;;18.56
27986;BMP280;15453;53.692;10.168;2022-10-18T01:33:07;102150.34;;;18.54
27986;BMP280;15453;53.692;10.168;2022-10-18T01:35:39;102152.03;;;18.55
27986;BMP280;15453;53.692;10.168;2022-10-18T01:38:10;102157.59;;;18.55
27986;BMP280;15453;53.692;10.168;2022-10-18T01:40:37;102150.63;;;18.52
27986;BMP280;15453;53.692;10.168;2022-10-18T01:43:04;102147.00;;;18.52
27986;BMP280;15453;53.692;10.168;2022-10-18T01:45:31;102153.41;;;18.52
27986;BMP280;15453;53.692;10.168;2022-10-18T01:47:57;102151.19;;;18.54
27986;BMP280;15453;53.692;10.168;2022-10-18T01:50:31;102151.19;;;18.54
27986;BMP280;15453;53.692;10.168;2022-10-18T01:52:57;102153.09;;;18.49
27986;BMP280;15453;53.692;10.168;2022-10-18T01:55:44;102155.88;;;18.49
27986;BMP280;15453;53.692;10.168;2022-10-18T01:58:24;102155.88;;;18.49
27986;BMP280;15453;53.692;10.168;2022-10-18T02:00:59;102155.31;;;18.47
27986;BMP280;15453;53.692;10.168;2022-10-18T02:03:28;102168.59;;;18.45
27986;BMP280;15453;53.692;10.168;2022-10-18T02:06:17;102163.03;;;18.45
27986;BMP280;15453;53.692;10.168;2022-10-18T02:08:49;102175.25;;;18.44
27986;BMP280;15453;53.692;10.168;2022-10-18T02:11:16;102168.03;;;18.43
27986;BMP280;15453;53.692;10.168;2022-10-18T02:13:47;102163.59;;;18.42
27986;BMP280;15453;53.692;10.168;2022-10-18T02:16:16;102159.13;;;18.41
27986;BMP280;15453;53.692;10.168;2022-10-18T02:18:59;102171.88;;;18.37
27986;BMP280;15453;53.692;10.168;2022-10-18T02:21:26;102168.75;;;18.33
27986;BMP280;15453;53.692;10.168;2022-10-18T02:23:53;102177.97;;;18.34
27986;BMP280;15453;53.692;10.168;2022-10-18T02:26:19;102175.44;;;18.32
27986;BMP280;15453;53.692;10.168;2022-10-18T02:28:44;102171.25;;;18.30
27986;BMP280;15453;53.692;10.168;2022-10-18T02:31:18;102167.88;;;18.28
27986;BMP280;15453;53.692;10.168;2022-10-18T02:34:00;102170.09;;;18.26
27986;BMP280;15453;53.692;10.168;2022-10-18T02:36:37;102159.28;;;18.24
27986;BMP280;15453;53.692;10.168;2022-10-18T02:39:11;102168.69;;;18.23
27986;BMP280;15453;53.692;10.168;2022-10-18T02:41:38;102161.47;;;18.22
27986;BMP280;15453;53.692;10.168;2022-10-18T02:44:04;102154.84;;;18.23
27986;BMP280;15453;53.692;10.168;2022-10-18T02:46:29;102152.31;;;18.22
27986;BMP280;15453;53.692;10.168;2022-10-18T02:48:54;102149.81;;;18.20
27986;BMP280;15453;53.692;10.168;2022-10-18T02:51:19;102153.69;;;18.19
27986;BMP280;15453;53.692;10.168;2022-10-18T02:53:44;102141.75;;;18.19
27986;BMP280;15453;53.692;10.168;2022-10-18T02:56:10;102146.44;;;18.18
27986;BMP280;15453;53.692;10.168;2022-10-18T02:58:35;102144.78;;;18.17
27986;BMP280;15453;53.692;10.168;2022-10-18T03:01:00;102153.94;;;18.18
27986;BMP280;15453;53.692;10.168;2022-10-18T03:03:25;102151.44;;;18.16
27986;BMP280;15453;53.692;10.168;2022-10-18T03:05:51;102152.00;;;18.18
27986;BMP280;15453;53.692;10.168;2022-10-18T03:08:17;102152.00;;;18.18
27986;BMP280;15453;53.692;10.168;2022-10-18T03:10:43;102152.28;;;18.17
27986;BMP280;15453;53.692;10.168;2022-10-18T03:13:09;102143.38;;;18.15
27986;BMP280;15453;53.692;10.168;2022-10-18T03:15:34;102146.41;;;18.13
27986;BMP280;15453;53.692;10.168;2022-10-18T03:17:59;102142.25;;;18.11
27986;BMP280;15453;53.692;10.168;2022-10-18T03:20:25;102146.38;;;18.08
27986;BMP280;15453;53.692;10.168;2022-10-18T03:22:50;102151.09;;;18.08
27986;BMP280;15453;53.692;10.168;2022-10-18T03:25:15;102152.19;;;18.07
27986;BMP280;15453;53.692;10.168;2022-10-18T03:27:40;102134.75;;;18.06
27986;BMP280;15453;53.692;10.168;2022-10-18T03:30:06;102135.00;;;18.05
27986;BMP280;15453;53.692;10.168;2022-10-18T03:32:32;102143.56;;;18.03
27986;BMP280;15453;53.692;10.168;2022-10-18T03:34:57;102139.13;;;18.02
27986;BMP280;15453;53.692;10.168;2022-10-18T03:37:23;102141.06;;;18.02
27986;BMP280;15453;53.692;10.168;2022-10-18T03:39:48;102134.94;;;18.00
27986;BMP280;15453;53.692;10.168;2022-10-18T03:42:13;102134.13;;;17.99
27986;BMP280;15453;53.692;10.168;2022-10-18T03:44:38;102138.00;;;17.98
27986;BMP280;15453;53.692;10.168;2022-10-18T03:47:04;102146.31;;;17.98
27986;BMP280;15453;53.692;10.168;2022-10-18T03:49:29;102147.97;;;17.99
27986;BMP280;15453;53.692;10.168;2022-10-18T03:51:54;102147.97;;;17.99
27986;BMP280;15453;53.692;10.168;2022-10-18T03:54:19;102145.72;;;17.96
27986;BMP280;15453;53.692;10.168;2022-10-18T03:56:45;102145.97;;;17.95
27986;BMP280;15453;53.692;10.168;2022-10-18T03:59:10;102133.22;;;17.94
27986;BMP280;15453;53.692;10.168;2022-10-18T04:01:35;102143.22;;;17.95
27986;BMP280;15453;53.692;10.168;2022-10-18T04:04:00;102143.22;;;17.95
27986;BMP280;15453;53.692;10.168;2022-10-18T04:06:26;102132.94;;;17.90
27986;BMP280;15453;53.692;10.168;2022-10-18T04:08:51;102124.63;;;17.90
27986;BMP280;15453;53.692;10.168;2022-10-18T04:11:16;102122.09;;;17.89
27986;BMP280;15453;53.692;10.168;2022-10-18T04:13:41;102128.75;;;17.88
27986;BMP280;15453;53.692;10.168;2022-10-18T04:16:06;102135.13;;;17.88
27986;BMP280;15453;53.692;10.168;2022-10-18T04:18:32;102127.06;;;17.87
27986;BMP280;15453;53.692;10.168;2022-10-18T04:20:57;102129.84;;;17.87
27986;BMP280;15453;53.692;10.168;2022-10-18T04:23:22;102125.13;;;17.87
27986;BMP280;15453;53.692;10.168;2022-10-18T04:25:48;102118.47;;;17.88
27986;BMP280;15453;53.692;10.168;2022-10-18T04:28:13;102120.44;;;17.88
27986;BMP280;15453;53.692;10.168;2022-10-18T04:30:38;102117.94;;;17.86
27986;BMP280;15453;53.692;10.168;2022-10-18T04:33:03;102129.84;;;17.87
27986;BMP280;15453;53.692;10.168;2022-10-18T04:35:29;102114.56;;;17.84
27986;BMP280;15453;53.692;10.168;2022-10-18T04:37:54;102126.75;;;17.83
27986;BMP280;15453;53.692;10.168;2022-10-18T04:40:19;102127.03;;;17.82
27986;BMP280;15453;53.692;10.168;2022-10-18T04:42:45;102124.25;;;17.82
27986;BMP280;15453;53.692;10.168;2022-10-18T04:45:10;102124.50;;;17.80
27986;BMP280;15453;53.692;10.168;2022-10-18T04:47:35;102120.63;;;17.81
27986;BMP280;15453;53.692;10.168;2022-10-18T04:50:01;102116.19;;;17.80
27986;BMP280;15453;53.692;10.168;2022-10-18T04:52:26;102111.53;;;17.86
27986;BMP280;15453;53.692;10.168;2022-10-18T04:54:52;102118.75;;;17.87
27986;BMP280;15453;53.692;10.168;2022-10-18T04:57:17;102118.75;;;17.87
27986;BMP280;15453;53.692;10.168;2022-10-18T04:59:42;102114.81;;;17.83
27986;BMP280;15453;53.692;10.168;2022-10-18T05:02:08;102108.22;;;17.84
27986;BMP280;15453;53.692;10.168;2022-10-18T05:04:34;102114.56;;;17.84
27986;BMP280;15453;53.692;10.168;2022-10-18T05:06:59;102125.13;;;17.87
27986;BMP280;15453;53.692;10.168;2022-10-18T05:09:25;102123.78;;;17.90
27986;BMP280;15453;53.692;10.168;2022-10-18T05:11:50;102120.75;;;17.91
27986;BMP280;15453;53.692;10.168;2022-10-18T05:14:15;102135.44;;;17.92
27986;BMP280;15453;53.692;10.168;2022-10-18T05:16:41;102121.59;;;17.92
27986;BMP280;15453;53.692;10.168;2022-10-18T05:19:06;102133.50;;;17.92
27986;BMP280;15453;53.692;10.168;2022-10-18T05:21:32;102126.84;;;17.93
27986;BMP280;15453;53.692;10.168;2022-10-18T05:23:57;102121.28;;;17.93
27986;BMP280;15453;53.692;10.168;2022-10-18T05:26:22;102112.72;;;17.95
27986;BMP280;15453;53.692;10.168;2022-10-18T05:28:48;102117.16;;;17.96
27986;BMP280;15453;53.692;10.168;2022-10-18T05:31:14;102108.56;;;17.97
27986;BMP280;15453;53.692;10.168;2022-10-18T05:33:40;102110.28;;;17.98
27986;BMP280;15453;53.692;10.168;2022-10-18T05:36:05;102117.47;;;17.99
27986;BMP280;15453;53.692;10.168;2022-10-18T05:38:31;102120.25;;;17.99
27986;BMP280;15453;53.692;10.168;2022-10-18T05:40:57;102115.53;;;18.00
27986;BMP280;15453;53.692;10.168;2022-10-18T05:43:22;102123.56;;;18.01
27986;BMP280;15453;53.692;10.168;2022-10-18T05:45:49;102120.81;;;18.01
27986;BMP280;15453;53.692;10.168;2022-10-18T05:48:14;102130.53;;;18.04
27986;BMP280;15453;53.692;10.168;2022-10-18T05:50:39;102137.50;;;18.06
27986;BMP280;15453;53.692;10.168;2022-10-18T05:53:05;102131.13;;;18.06
27986;BMP280;15453;53.692;10.168;2022-10-18T05:55:30;102130.00;;;18.07
27986;BMP280;15453;53.692;10.168;2022-10-18T05:57:55;102130.84;;;18.07
27986;BMP280;15453;53.692;10.168;2022-10-18T06:00:20;102130.59;;;18.09
27986;BMP280;15453;53.692;10.168;2022-10-18T06:02:45;102134.19;;;18.09
27986;BMP280;15453;53.692;10.168;2022-10-18T06:05:11;102136.97;;;18.09
27986;BMP280;15453;53.692;10.168;2022-10-18T06:07:36;102136.97;;;18.09
27986;BMP280;15453;53.692;10.168;2022-10-18T06:10:01;102136.97;;;18.09
27986;BMP280;15453;53.692;10.168;2022-10-18T06:12:26;102140.56;;;18.10
27986;BMP280;15453;53.692;10.168;2022-10-18T06:14:52;102140.56;;;18.10
27986;BMP280;15453;53.692;10.168;2022-10-18T06:17:17;102139.94;;;18.03
27986;BMP280;15453;53.692;10.168;2022-10-18T06:19:43;102144.69;;;18.02
27986;BMP280;15453;53.692;10.168;2022-10-18T06:22:11;102139.41;;;18.01
27986;BMP280;15453;53.692;10.168;2022-10-18T06:24:36;102145.19;;;17.99
27986;BMP280;15453;53.692;10.168;2022-10-18T06:27:02;102149.63;;;18.00
27986;BMP280;15453;53.692;10.168;2022-10-18T06:29:37;102149.63;;;18.00
27986;BMP280;15453;53.692;10.168;2022-10-18T06:32:03;102152.13;;;17.97
27986;BMP280;15453;53.692;10.168;2022-10-18T06:34:28;102142.94;;;17.96
27986;BMP280;15453;53.692;10.168;2022-10-18T06:36:54;102137.66;;;17.95
27986;BMP280;15453;53.692;10.168;2022-10-18T06:39:19;102150.41;;;17.96
27986;BMP280;15453;53.692;10.168;2022-10-18T06:41:44;102145.97;;;17.95
27986;BMP280;15453;53.692;10.168;2022-10-18T06:44:10;102144.56;;;17.92
27986;BMP280;15453;53.692;10.168;2022-10-18T06:46:41;102145.09;;;17.89
27986;BMP280;15453;53.692;10.168;2022-10-18T06:49:07;102150.94;;;17.88
27986;BMP280;15453;53.692;10.168;2022-10-18T06:51:32;102155.88;;;17.86
27986;BMP280;15453;53.692;10.168;2022-10-18T06:53:58;102157.25;;;17.83
27986;BMP280;15453;53.692;10.168;2022-10-18T06:56:23;102164.72;;;17.83
27986;BMP280;15453;53.692;10.168;2022-10-18T06:58:48;102164.72;;;17.83
27986;BMP280;15453;53.692;10.168;2022-10-18T07:01:15;102165.56;;;17.83
27986;BMP280;15453;53.692;10.168;2022-10-18T07:03:41;102171.13;;;17.83
27986;BMP280;15453;53.692;10.168;2022-10-18T07:06:08;102174.72;;;17.84
27986;BMP280;15453;53.692;10.168;2022-10-18T07:08:34;102181.09;;;17.84
27986;BMP280;15453;53.692;10.168;2022-10-18T07:11:00;102183.88;;;17.84
27986;BMP280;15453;53.692;10.168;2022-10-18T07:13:28;102183.03;;;17.84
27986;BMP280;15453;53.692;10.168;2022-10-18T07:16:04;102181.09;;;17.84
27986;BMP280;15453;53.692;10.168;2022-10-18T07:18:34;102182.75;;;17.85
27986;BMP280;15453;53.692;10.168;2022-10-18T07:21:04;102184.19;;;17.88
27986;BMP280;15453;53.692;10.168;2022-10-18T07:23:32;102181.13;;;17.89
27986;BMP280;15453;53.692;10.168;2022-10-18T07:25:57;102180.31;;;17.89
27986;BMP280;15453;53.692;10.168;2022-10-18T07:28:23;102180.06;;;17.90
27986;BMP280;15453;53.692;10.168;2022-10-18T07:30:48;102182.56;;;17.92
27986;BMP280;15453;53.692;10.168;2022-10-18T07:33:13;102195.88;;;17.95
27986;BMP280;15453;53.692;10.168;2022-10-18T07:35:39;102203.16;;;18.01
27986;BMP280;15453;53.692;10.168;2022-10-18T07:38:04;102203.16;;;18.01
27986;BMP280;15453;53.692;10.168;2022-10-18T07:40:29;102195.09;;;17.99
27986;BMP280;15453;53.692;10.168;2022-10-18T07:42:54;102194.59;;;18.02
27986;BMP280;15453;53.692;10.168;2022-10-18T07:45:19;102207.09;;;18.05
27986;BMP280;15453;53.692;10.168;2022-10-18T07:47:45;102206.25;;;18.04
27986;BMP280;15453;53.692;10.168;2022-10-18T07:50:10;102214.03;;;18.07
27986;BMP280;15453;53.692;10.168;2022-10-18T07:52:35;102213.50;;;18.10
27986;BMP280;15453;53.692;10.168;2022-10-18T07:55:00;102202.13;;;18.12
27986;BMP280;15453;53.692;10.168;2022-10-18T07:57:26;102205.50;;;18.14
27986;BMP280;15453;53.692;10.168;2022-10-18T07:59:51;102207.16;;;18.15
27986;BMP280;15453;53.692;10.168;2022-10-18T08:02:24;102217.75;;;18.18
27986;BMP280;15453;53.692;10.168;2022-10-18T08:04:49;102210.25;;;18.18
27986;BMP280;15453;53.692;10.168;2022-10-18T08:07:14;102222.19;;;18.19
27986;BMP280;15453;53.692;10.168;2022-10-18T08:09:39;102208.31;;;18.19
27986;BMP280;15453;53.692;10.168;2022-10-18T08:12:05;102210.25;;;18.18
27986;BMP280;15453;53.692;10.168;2022-10-18T08:14:30;102224.94;;;18.19
27986;BMP280;15453;53.692;10.168;2022-10-18T08:16:55;102206.94;;;18.21
27986;BMP280;15453;53.692;10.168;2022-10-18T08:19:21;102206.94;;;18.21
27986;BMP280;15453;53.692;10.168;2022-10-18T08:21:46;102203.63;;;18.19
27986;BMP280;15453;53.692;10.168;2022-10-18T08:24:11;102201.09;;;18.18
27986;BMP280;15453;53.692;10.168;2022-10-18T08:26:36;102196.38;;;18.18
27986;BMP280;15453;53.692;10.168;2022-10-18T08:29:02;102203.88;;;18.18
27986;BMP280;15453;53.692;10.168;2022-10-18T08:31:27;102211.94;;;18.19
27986;BMP280;15453;53.692;10.168;2022-10-18T08:33:54;102211.94;;;18.19
27986;BMP280;15453;53.692;10.168;2022-10-18T08:36:21;102204.69;;;18.18
27986;BMP280;15453;53.692;10.168;2022-10-18T08:38:46;102201.09;;;18.18
27986;BMP280;15453;53.692;10.168;2022-10-18T08:44:22;102201.91;;;18.18
27986;BMP280;15453;53.692;10.168;2022-10-18T08:46:51;102204.44;;;18.20
27986;BMP280;15453;53.692;10.168;2022-10-18T08:49:40;102207.78;;;18.22
27986;BMP280;15453;53.692;10.168;2022-10-18T08:52:18;102211.63;;;18.21
27986;BMP280;15453;53.692;10.168;2022-10-18T08:55:02;102211.94;;;18.19
27986;BMP280;15453;53.692;10.168;2022-10-18T08:57:29;102208.31;;;18.19
27986;BMP280;15453;53.692;10.168;2022-10-18T08:59:54;102220.81;;;18.21
27986;BMP280;15453;53.692;10.168;2022-10-18T09:03:04;102219.16;;;18.20
27986;BMP280;15453;53.692;10.168;2022-10-18T09:05:44;102212.19;;;18.18
27986;BMP280;15453;53.692;10.168;2022-10-18T09:10:56;102226.94;;;18.23
27986;BMP280;15453;53.692;10.168;2022-10-18T09:16:15;102232.16;;;18.20
27986;BMP280;15453;53.692;10.168;2022-10-18T09:19:42;102230.50;;;18.19
27986;BMP280;15453;53.692;10.168;2022-10-18T09:24:30;102235.97;;;18.09
27986;BMP280;15453;53.692;10.168;2022-10-18T09:27:04;102236.81;;;18.14
27986;BMP280;15453;53.692;10.168;2022-10-18T09:32:50;102229.94;;;18.17
27986;BMP280;15453;53.692;10.168;2022-10-18T09:35:23;102226.06;;;18.18
27986;BMP280;15453;53.692;10.168;2022-10-18T09:37:52;102224.19;;;18.23
27986;BMP280;15453;53.692;10.168;2022-10-18T09:40:23;102234.19;;;18.29
27986;BMP280;15453;53.692;10.168;2022-10-18T09:43:05;102239.59;;;18.41
27986;BMP280;15453;53.692;10.168;2022-10-18T09:45:34;102239.59;;;18.41
27986;BMP280;15453;53.692;10.168;2022-10-18T09:48:20;102231.84;;;18.43
27986;BMP280;15453;53.692;10.168;2022-10-18T09:56:17;102230.78;;;18.49
27986;BMP280;15453;53.692;10.168;2022-10-18T09:58:47;102222.78;;;18.52
27986;BMP280;15453;53.692;10.168;2022-10-18T10:01:18;102213.09;;;18.55
27986;BMP280;15453;53.692;10.168;2022-10-18T10:03:45;102211.97;;;18.56
27986;BMP280;15453;53.692;10.168;2022-10-18T10:08:35;102201.41;;;18.53
27986;BMP280;15453;53.692;10.168;2022-10-18T10:11:00;102215.84;;;18.55
27986;BMP280;15453;53.692;10.168;2022-10-18T10:13:26;102201.41;;;18.53
27986;BMP280;15453;53.692;10.168;2022-10-18T10:15:56;102209.16;;;18.51
27986;BMP280;15453;53.692;10.168;2022-10-18T10:18:28;102209.16;;;18.51
27986;BMP280;15453;53.692;10.168;2022-10-18T10:20:57;102214.66;;;18.46
27986;BMP280;15453;53.692;10.168;2022-10-18T10:25:52;102221.03;;;18.41
27986;BMP280;15453;53.692;10.168;2022-10-18T10:28:21;102228.47;;;18.36
27986;BMP280;15453;53.692;10.168;2022-10-18T10:30:47;102230.91;;;18.32
27986;BMP280;15453;53.692;10.168;2022-10-18T10:33:33;102233.31;;;18.24
27986;BMP280;15453;53.692;10.168;2022-10-18T10:36:00;102228.03;;;18.22
27986;BMP280;15453;53.692;10.168;2022-10-18T10:38:27;102230.78;;;18.22
27986;BMP280;15453;53.692;10.168;2022-10-18T10:40:53;102234.97;;;18.25
27986;BMP280;15453;53.692;10.168;2022-10-18T10:43:33;102236.69;;;18.26
27986;BMP280;15453;53.692;10.168;2022-10-18T10:49:00;102236.09;;;18.24
27986;BMP280;15453;53.692;10.168;2022-10-18T10:51:35;102239.97;;;18.23
27986;BMP280;15453;53.692;10.168;2022-10-18T10:54:04;102245.38;;;18.34
27986;BMP280;15453;53.692;10.168;2022-10-18T10:56:35;102245.38;;;18.34
27986;BMP280;15453;53.692;10.168;2022-10-18T10:59:12;102234.59;;;18.38
27986;BMP280;15453;53.692;10.168;2022-10-18T11:01:38;102243.47;;;18.40
27986;BMP280;15453;53.692;10.168;2022-10-18T11:04:29;102244.34;;;18.45
27986;BMP280;15453;53.692;10.168;2022-10-18T11:07:30;102241.88;;;18.49
27986;BMP280;15453;53.692;10.168;2022-10-18T11:10:05;102254.78;;;18.65
27986;BMP280;15453;53.692;10.168;2022-10-18T11:12:38;102254.78;;;18.65
27986;BMP280;15453;53.692;10.168;2022-10-18T11:15:23;102246.47;;;18.70
27986;BMP280;15453;53.692;10.168;2022-10-18T11:20:46;102251.56;;;18.83
27986;BMP280;15453;53.692;10.168;2022-10-18T11:23:14;102251.88;;;18.86
27986;BMP280;15453;53.692;10.168;2022-10-18T11:31:09;102254.72;;;19.01
27986;BMP280;15453;53.692;10.168;2022-10-18T11:36:47;102239.81;;;19.12
27986;BMP280;15453;53.692;10.168;2022-10-18T11:39:28;102237.38;;;19.21
27986;BMP280;15453;53.692;10.168;2022-10-18T11:44:40;102233.56;;;19.37
27986;BMP280;15453;53.692;10.168;2022-10-18T11:47:22;102230.81;;;19.42
27986;BMP280;15453;53.692;10.168;2022-10-18T11:52:26;102223.63;;;19.56
27986;BMP280;15453;53.692;10.168;2022-10-18T11:58:01;102235.63;;;19.66
27986;BMP280;15453;53.692;10.168;2022-10-18T12:00:47;102235.91;;;19.70
27986;BMP280;15453;53.692;10.168;2022-10-18T12:03:21;102231.72;;;19.72
27986;BMP280;15453;53.692;10.168;2022-10-18T12:05:50;102225.34;;;19.77
27986;BMP280;15453;53.692;10.168;2022-10-18T12:08:20;102232.31;;;19.79
27986;BMP280;15453;53.692;10.168;2022-10-18T12:10:49;102218.13;;;19.81
27986;BMP280;15453;53.692;10.168;2022-10-18T12:13:20;102223.44;;;19.82
27986;BMP280;15453;53.692;10.168;2022-10-18T12:15:47;102229.81;;;19.83
27986;BMP280;15453;53.692;10.168;2022-10-18T12:18:16;102231.78;;;19.87
27986;BMP280;15453;53.692;10.168;2022-10-18T12:20:46;102210.91;;;19.85
27986;BMP280;15453;53.692;10.168;2022-10-18T12:23:20;102205.34;;;19.85
27986;BMP280;15453;53.692;10.168;2022-10-18T12:25:52;102214.81;;;19.89
27986;BMP280;15453;53.692;10.168;2022-10-18T12:33:36;102201.50;;;20.01
27986;BMP280;15453;53.692;10.168;2022-10-18T12:36:44;102208.72;;;20.07
27986;BMP280;15453;53.692;10.168;2022-10-18T12:39:27;102204.81;;;20.08
27986;BMP280;15453;53.692;10.168;2022-10-18T12:41:55;102210.44;;;20.13
27986;BMP280;15453;53.692;10.168;2022-10-18T12:44:31;102206.00;;;20.17
27986;BMP280;15453;53.692;10.168;2022-10-18T12:46:59;102202.91;;;20.18
27986;BMP280;15453;53.692;10.168;2022-10-18T12:49:33;102215.72;;;20.29
27986;BMP280;15453;53.692;10.168;2022-10-18T12:52:02;102201.78;;;20.34
27986;BMP280;15453;53.692;10.168;2022-10-18T12:54:30;102211.81;;;20.40
27986;BMP280;15453;53.692;10.168;2022-10-18T12:56:57;102207.09;;;20.46
27986;BMP280;15453;53.692;10.168;2022-10-18T13:09:38;102210.69;;;20.56
27986;BMP280;15453;53.692;10.168;2022-10-18T13:26:03;102209.06;;;20.35
27986;BMP280;15453;53.692;10.168;2022-10-18T13:28:51;102209.88;;;20.26
27986;BMP280;15453;53.692;10.168;2022-10-18T13:36:59;102210.38;;;20.03
27986;BMP280;15453;53.692;10.168;2022-10-18T13:39:25;102210.38;;;19.98
27986;BMP280;15453;53.692;10.168;2022-10-18T13:58:06;102223.44;;;19.82
27986;BMP280;15453;53.692;10.168;2022-10-18T14:00:49;102209.53;;;19.82
27986;BMP280;15453;53.692;10.168;2022-10-18T14:03:28;102206.16;;;19.80
27986;BMP280;15453;53.692;10.168;2022-10-18T14:06:05;102210.91;;;19.80
27986;BMP280;15453;53.692;10.168;2022-10-18T14:08:41;102209.78;;;19.81
27986;BMP280;15453;53.692;10.168;2022-10-18T14:11:23;102208.41;;;19.83
27986;BMP280;15453;53.692;10.168;2022-10-18T14:13:55;102208.41;;;19.83
27986;BMP280;15453;53.692;10.168;2022-10-18T14:17:02;102200.34;;;19.82
27986;BMP280;15453;53.692;10.168;2022-10-18T14:19:37;102209.53;;;19.82
27986;BMP280;15453;53.692;10.168;2022-10-18T14:22:14;102209.78;;;19.81
27986;BMP280;15453;53.692;10.168;2022-10-18T14:24:43;102210.06;;;19.79
27986;BMP280;15453;53.692;10.168;2022-10-18T14:27:19;102223.69;;;19.76
27986;BMP280;15453;53.692;10.168;2022-10-18T14:29:45;102222.25;;;19.68
27986;BMP280;15453;53.692;10.168;2022-10-18T14:32:23;102223.91;;;19.64
27986;BMP280;15453;53.692;10.168;2022-10-18T14:34:49;102230.31;;;19.60
27986;BMP280;15453;53.692;10.168;2022-10-18T14:37:28;102226.97;;;19.58
27986;BMP280;15453;53.692;10.168;2022-10-18T14:39:54;102220.56;;;19.52
27986;BMP280;15453;53.692;10.168;2022-10-18T14:42:21;102227.78;;;19.48
27986;BMP280;15453;53.692;10.168;2022-10-18T14:44:49;102231.94;;;19.46
27986;BMP280;15453;53.692;10.168;2022-10-18T14:47:27;102230.81;;;19.42
27986;BMP280;15453;53.692;10.168;2022-10-18T14:49:54;102246.41;;;19.48
27986;BMP280;15453;53.692;10.168;2022-10-18T14:52:26;102246.41;;;19.48
27986;BMP280;15453;53.692;10.168;2022-10-18T14:54:55;102242.47;;;19.44
27986;BMP280;15453;53.692;10.168;2022-10-18T14:57:29;102239.44;;;19.45
27986;BMP280;15453;53.692;10.168;2022-10-18T15:00:00;102233.03;;;19.45
27986;BMP280;15453;53.692;10.168;2022-10-18T15:02:32;102238.31;;;19.46
27986;BMP280;15453;53.692;10.168;2022-10-18T15:05:08;102240.56;;;19.44
27986;BMP280;15453;53.692;10.168;2022-10-18T15:07:35;102235.25;;;19.43
27986;BMP280;15453;53.692;10.168;2022-10-18T15:10:03;102230.81;;;19.42
27986;BMP280;15453;53.692;10.168;2022-10-18T15:12:30;102238.03;;;19.43
27986;BMP280;15453;53.692;10.168;2022-10-18T15:14:56;102238.03;;;19.43
27986;BMP280;15453;53.692;10.168;2022-10-18T15:17:26;102224.41;;;19.41
27986;BMP280;15453;53.692;10.168;2022-10-18T15:19:58;102245.50;;;19.37
27986;BMP280;15453;53.692;10.168;2022-10-18T15:22:26;102245.50;;;19.37
27986;BMP280;15453;53.692;10.168;2022-10-18T15:27:35;102244.63;;;19.27
27986;BMP280;15453;53.692;10.168;2022-10-18T15:30:14;102239.34;;;19.25
27986;BMP280;15453;53.692;10.168;2022-10-18T15:32:48;102245.16;;;19.24
27986;BMP280;15453;53.692;10.168;2022-10-18T15:35:35;102233.75;;;19.20
27986;BMP280;15453;53.692;10.168;2022-10-18T15:38:15;102235.13;;;19.18
27986;BMP280;15453;53.692;10.168;2022-10-18T15:40:41;102238.44;;;19.15
27986;BMP280;15453;53.692;10.168;2022-10-18T15:45:47;102241.44;;;19.08
27986;BMP280;15453;53.692;10.168;2022-10-18T15:48:18;102233.66;;;19.05
27986;BMP280;15453;53.692;10.168;2022-10-18T15:50:55;102230.00;;;19.00